Time;durP1;ratioP1;P1;durP2;ratioP2;P2;SDS_P1;SDS_P2;PMS_P1;PMS_P2;Temp;Humidity;BMP_temperature;BMP_pressure;BME280_temperature;BME280_humidity;BME280_pressure;Samples;Min_cycle;Max_cycle;Signal;HPM_P1;HPM_P2
2021/04/23 00:00:56;;;;;;;2.73;2.53;;;25.80;50.10;;;;;;4994062;28;20484;-83
2021/04/23 00:03:27;;;;;;;2.73;2.53;;;26.00;50.10;;;;;;4994066;28;20447;-83
2021/04/23 00:05:57;;;;;;;2.10;1.90;;;25.80;50.60;;;;;;4993958;28;20496;-83
2021/04/23 00:08:24;;;;;;;2.43;2.23;;;25.80;50.00;;;;;;4994091;28;20441;-83
2021/04/23 00:10:51;;;;;;;3.10;2.70;;;25.80;50.10;;;;;;4994227;28;20550;-83
2021/04/23 00:13:19;;;;;;;2.47;2.27;;;25.80;50.10;;;;;;4994112;28;20769;-83
2021/04/23 00:15:47;;;;;;;2.20;2.00;;;25.80;50.00;;;;;;4993834;28;20447;-83
2021/04/23 00:18:13;;;;;;;3.27;2.47;;;25.80;50.00;;;;;;4993787;28;20440;-83
2021/04/23 00:20:40;;;;;;;3.03;2.60;;;25.80;50.00;;;;;;4994154;28;20440;-83
2021/04/23 00:23:08;;;;;;;3.63;2.37;;;25.80;50.00;;;;;;4993913;28;20927;-83
2021/04/23 00:25:34;;;;;;;3.27;2.43;;;25.80;50.00;;;;;;4993774;28;20495;-82
2021/04/23 00:28:03;;;;;;;2.60;2.40;;;25.70;49.90;;;;;;4995193;28;20502;-83
2021/04/23 00:30:33;;;;;;;2.40;2.17;;;25.80;50.00;;;;;;4997767;28;20447;-83
2021/04/23 00:33:00;;;;;;;4.27;2.70;;;25.70;50.00;;;;;;4997992;28;20432;-84
2021/04/23 00:35:29;;;;;;;3.43;2.33;;;25.70;50.00;;;;;;4997690;28;20440;-83
2021/04/23 00:37:57;;;;;;;2.70;2.50;;;25.70;50.00;;;;;;4997932;28;20547;-83
2021/04/23 00:40:30;;;;;;;1.73;1.63;;;25.70;50.00;;;;;;4997855;28;20467;-83
2021/04/23 00:42:57;;;;;;;2.97;2.67;;;25.70;49.90;;;;;;4997798;28;20497;-83
2021/04/23 00:45:27;;;;;;;3.43;2.07;;;25.70;49.90;;;;;;4997371;28;20492;-83
2021/04/23 00:47:56;;;;;;;2.23;2.00;;;25.70;50.00;;;;;;4997858;28;20440;-83
2021/04/23 00:50:32;;;;;;;2.60;2.40;;;25.70;49.90;;;;;;4997575;28;20871;-83
2021/04/23 00:52:59;;;;;;;2.00;1.90;;;25.70;49.90;;;;;;4997780;28;20436;-83
2021/04/23 00:55:27;;;;;;;2.03;1.93;;;25.70;49.90;;;;;;4997252;28;20934;-83
2021/04/23 00:57:54;;;;;;;2.37;2.17;;;25.60;49.90;;;;;;4997389;28;20522;-83
2021/04/23 01:00:21;;;;;;;2.67;1.70;;;25.70;49.90;;;;;;4997060;28;20467;-83
2021/04/23 01:02:48;;;;;;;2.53;1.90;;;25.60;49.90;;;;;;4997359;28;20448;-83
2021/04/23 01:05:16;;;;;;;1.70;1.60;;;25.60;49.80;;;;;;4997135;28;20884;-83
2021/04/23 01:07:45;;;;;;;2.00;1.80;;;25.60;49.80;;;;;;4997253;28;20450;-83
2021/04/23 01:10:12;;;;;;;2.23;2.03;;;25.60;49.90;;;;;;4996958;28;20440;-83
2021/04/23 01:12:38;;;;;;;2.40;2.20;;;25.60;49.80;;;;;;4997031;28;20444;-83
2021/04/23 01:15:06;;;;;;;1.77;1.67;;;25.60;49.90;;;;;;4996942;28;20446;-83
2021/04/23 01:17:32;;;;;;;2.90;1.90;;;25.60;49.90;;;;;;4996832;28;20533;-83
2021/04/23 01:19:59;;;;;;;2.00;1.53;;;25.80;50.10;;;;;;4996904;28;20447;-84
2021/04/23 01:22:26;;;;;;;2.13;1.93;;;25.60;49.90;;;;;;4996912;28;20443;-83
2021/04/23 01:24:52;;;;;;;2.10;1.87;;;25.60;49.80;;;;;;4996845;28;20488;-83
2021/04/23 01:27:18;;;;;;;2.50;2.30;;;25.60;49.90;;;;;;4996816;28;20490;-83
2021/04/23 01:29:45;;;;;;;1.93;1.83;;;25.60;49.90;;;;;;4996709;28;20510;-83
2021/04/23 01:32:11;;;;;;;1.53;1.43;;;25.60;49.90;;;;;;4996813;28;20502;-83
2021/04/23 01:34:41;;;;;;;2.20;2.00;;;25.60;49.90;;;;;;4996715;28;20919;-83
2021/04/23 01:37:08;;;;;;;2.03;1.83;;;25.60;49.90;;;;;;4996962;28;20530;-83
2021/04/23 01:39:38;;;;;;;3.87;1.90;;;25.60;49.90;;;;;;4996039;28;20439;-83
2021/04/23 01:42:06;;;;;;;1.90;1.77;;;25.60;49.90;;;;;;4996432;28;20804;-83
2021/04/23 01:44:33;;;;;;;2.10;1.90;;;25.50;49.80;;;;;;4996347;28;20476;-83
2021/04/23 01:47:00;;;;;;;1.80;1.70;;;25.50;49.90;;;;;;4996311;28;20471;-84
2021/04/23 01:49:26;;;;;;;1.90;1.70;;;25.60;50.00;;;;;;4996669;28;20436;-83
2021/04/23 01:51:54;;;;;;;1.80;1.63;;;25.70;49.90;;;;;;4996210;28;20949;-83
2021/04/23 01:54:22;;;;;;;2.90;2.20;;;25.50;49.90;;;;;;4996419;28;20470;-83
2021/04/23 01:56:51;;;;;;;3.70;1.53;;;25.50;49.80;;;;;;4996506;28;20447;-83
2021/04/23 01:59:17;;;;;;;1.60;1.50;;;25.50;49.80;;;;;;4995156;28;20463;-83
2021/04/23 02:01:44;;;;;;;1.70;1.47;;;25.50;49.80;;;;;;4996136;28;20468;-82
2021/04/23 02:04:12;;;;;;;2.07;1.87;;;25.50;49.90;;;;;;4995984;28;20448;-82
2021/04/23 02:06:40;;;;;;;2.03;1.93;;;25.50;49.90;;;;;;4996528;28;20768;-84
2021/04/23 02:09:08;;;;;;;2.27;2.07;;;25.50;49.90;;;;;;4996179;28;20436;-83
2021/04/23 02:11:35;;;;;;;1.93;1.83;;;25.50;50.40;;;;;;4995962;28;20529;-83
2021/04/23 02:14:04;;;;;;;1.40;1.30;;;25.50;49.90;;;;;;4995822;28;20444;-84
2021/04/23 02:16:31;;;;;;;2.10;2.00;;;25.50;49.80;;;;;;4995794;28;20476;-83
2021/04/23 02:18:57;;;;;;;1.93;1.73;;;25.50;49.80;;;;;;4995826;28;20439;-82
2021/04/23 02:21:23;;;;;;;2.03;1.80;;;25.70;49.90;;;;;;4995655;28;20448;-83
2021/04/23 02:23:51;;;;;;;2.07;1.93;;;25.50;49.80;;;;;;4995685;28;20839;-83
2021/04/23 02:26:18;;;;;;;2.73;1.50;;;25.50;49.90;;;;;;4995789;28;20488;-82
2021/04/23 02:28:45;;;;;;;1.70;1.60;;;25.50;49.80;;;;;;4995859;28;20448;-83
2021/04/23 02:31:15;;;;;;;2.57;2.03;;;25.50;49.80;;;;;;4995735;28;20452;-83
2021/04/23 02:33:44;;;;;;;2.20;2.00;;;25.70;50.50;;;;;;4995653;28;20436;-83
2021/04/23 02:36:11;;;;;;;1.60;1.50;;;25.50;49.80;;;;;;4995388;28;20555;-83
2021/04/23 02:38:38;;;;;;;2.17;1.97;;;25.50;49.70;;;;;;4995674;28;20439;-83
2021/04/23 02:41:05;;;;;;;3.00;1.83;;;25.50;49.90;;;;;;4995388;28;20495;-83
2021/04/23 02:43:35;;;;;;;1.67;1.57;;;25.50;49.70;;;;;;4995480;28;21175;-83
2021/04/23 02:46:02;;;;;;;2.00;1.80;;;25.50;49.80;;;;;;4995413;28;20499;-82
2021/04/23 02:48:33;;;;;;;2.20;2.00;;;25.50;49.70;;;;;;4995407;28;20439;-83
2021/04/23 02:51:03;;;;;;;1.80;1.70;;;25.50;49.70;;;;;;4994499;28;20451;-83
2021/04/23 02:53:30;;;;;;;1.50;1.40;;;25.50;49.80;;;;;;4994949;28;20451;-83
2021/04/23 02:55:57;;;;;;;1.90;1.80;;;25.50;49.80;;;;;;4995427;28;20820;-83
2021/04/23 02:58:23;;;;;;;1.70;1.60;;;25.50;49.70;;;;;;4995208;28;20494;-83
2021/04/23 03:00:52;;;;;;;2.60;1.40;;;25.50;49.80;;;;;;4995056;28;20478;-83
2021/04/23 03:03:19;;;;;;;1.70;1.60;;;25.50;49.70;;;;;;4995014;28;20451;-83
2021/04/23 03:05:47;;;;;;;2.20;2.00;;;25.50;49.70;;;;;;4994915;28;20982;-83
2021/04/23 03:08:14;;;;;;;2.23;1.67;;;25.50;49.80;;;;;;4994968;28;20436;-83
2021/04/23 03:10:43;;;;;;;2.10;1.90;;;25.50;49.80;;;;;;4994759;28;20444;-83
2021/04/23 03:13:13;;;;;;;2.13;1.93;;;25.50;49.80;;;;;;4994717;28;20505;-83
2021/04/23 03:15:40;;;;;;;2.20;1.97;;;25.50;49.70;;;;;;4994698;28;20447;-82
2021/04/23 03:18:09;;;;;;;1.60;1.50;;;25.50;49.80;;;;;;4994675;28;20967;-83
2021/04/23 03:20:36;;;;;;;1.77;1.67;;;25.50;49.80;;;;;;4994527;28;20440;-83
2021/04/23 03:23:04;;;;;;;1.60;1.50;;;25.50;49.80;;;;;;4994608;28;20439;-82
2021/04/23 03:25:31;;;;;;;1.90;1.80;;;25.50;49.80;;;;;;4994502;28;20499;-83
2021/04/23 03:27:59;;;;;;;1.93;1.83;;;25.50;49.90;;;;;;4994703;28;20501;-83
2021/04/23 03:30:30;;;;;;;1.90;1.40;;;25.50;49.80;;;;;;4994550;28;20440;-83
2021/04/23 03:32:56;;;;;;;1.87;1.77;;;25.50;49.80;;;;;;4994574;28;20444;-82
2021/04/23 03:35:23;;;;;;;1.60;1.50;;;25.70;49.90;;;;;;4994576;28;20444;-83
2021/04/23 03:37:50;;;;;;;2.07;1.80;;;25.60;49.80;;;;;;4994530;28;20998;-83
2021/04/23 03:40:20;;;;;;;2.00;1.70;;;25.50;49.80;;;;;;4994578;28;20444;-83
2021/04/23 03:42:47;;;;;;;1.70;1.60;;;25.50;49.70;;;;;;4994535;28;20503;-83
2021/04/23 03:45:16;;;;;;;1.90;1.70;;;25.50;49.70;;;;;;4994316;28;20494;-83
2021/04/23 03:47:42;;;;;;;2.40;2.20;;;25.50;49.80;;;;;;4994553;28;20460;-83
2021/04/23 03:50:11;;;;;;;1.63;1.53;;;25.50;49.70;;;;;;4994367;28;20440;-82
2021/04/23 03:52:38;;;;;;;2.30;2.10;;;25.50;49.70;;;;;;4994012;28;20447;-83
2021/04/23 03:55:06;;;;;;;1.63;1.53;;;25.50;49.80;;;;;;4994215;28;20440;-83
2021/04/23 03:57:34;;;;;;;2.30;1.80;;;25.40;49.80;;;;;;4994388;28;20451;-83
2021/04/23 04:00:00;;;;;;;1.60;1.50;;;25.40;49.80;;;;;;4994216;28;20494;-84
2021/04/23 04:02:26;;;;;;;1.60;1.50;;;25.40;49.80;;;;;;4993866;28;20455;-83
2021/04/23 04:04:53;;;;;;;2.30;2.20;;;25.40;49.70;;;;;;4993905;28;20978;-83
2021/04/23 04:07:19;;;;;;;2.47;2.27;;;25.50;49.80;;;;;;4994109;28;20453;-84
2021/04/23 04:09:45;;;;;;;2.03;1.70;;;25.40;49.70;;;;;;4994018;28;20777;-84
2021/04/23 04:12:11;;;;;;;2.07;1.97;;;25.60;49.80;;;;;;4993866;28;20797;-84
2021/04/23 04:14:38;;;;;;;2.53;1.73;;;25.40;49.70;;;;;;4993869;28;20450;-84
2021/04/23 04:17:05;;;;;;;1.63;1.53;;;25.40;49.60;;;;;;4994024;28;20958;-84
2021/04/23 04:19:31;;;;;;;1.70;1.60;;;25.40;49.70;;;;;;4994227;28;20440;-84
2021/04/23 04:21:58;;;;;;;2.30;2.13;;;25.40;49.60;;;;;;4994018;28;20448;-84
2021/04/23 04:24:24;;;;;;;1.60;1.50;;;25.40;49.60;;;;;;4993905;28;20888;-84
2021/04/23 04:26:51;;;;;;;1.70;1.60;;;25.40;49.60;;;;;;4993833;28;21187;-85
2021/04/23 04:29:18;;;;;;;2.17;1.97;;;25.60;49.90;;;;;;4993942;28;20442;-83
2021/04/23 04:31:45;;;;;;;2.00;1.90;;;25.60;49.70;;;;;;4993877;28;20451;-84
2021/04/23 04:34:12;;;;;;;1.63;1.50;;;25.40;49.60;;;;;;4993797;28;20471;-83
2021/04/23 04:36:38;;;;;;;2.23;2.03;;;25.40;49.60;;;;;;4993729;28;20494;-84
2021/04/23 04:39:05;;;;;;;2.40;2.17;;;25.40;49.90;;;;;;4994239;28;20436;-85
2021/04/23 04:41:32;;;;;;;3.63;1.67;;;25.40;49.80;;;;;;4993910;28;20527;-84
2021/04/23 04:43:59;;;;;;;2.10;2.00;;;25.40;49.60;;;;;;4993792;28;20440;-83
2021/04/23 04:46:25;;;;;;;1.57;1.47;;;25.50;49.60;;;;;;4993319;28;20488;-83
2021/04/23 04:48:52;;;;;;;1.67;1.53;;;25.40;49.60;;;;;;4993693;28;20502;-84
2021/04/23 04:51:18;;;;;;;1.50;1.37;;;25.60;50.00;;;;;;4993834;28;20448;-84
2021/04/23 04:53:45;;;;;;;2.20;2.00;;;25.50;50.20;;;;;;4993353;28;20521;-84
2021/04/23 04:56:11;;;;;;;1.80;1.70;;;25.50;49.70;;;;;;4993562;28;20447;-85
2021/04/23 04:58:39;;;;;;;2.33;1.80;;;25.50;49.50;;;;;;4993564;28;20444;-84
2021/04/23 05:01:07;;;;;;;2.57;2.10;;;25.50;49.70;;;;;;4993564;28;20483;-84
2021/04/23 05:03:33;;;;;;;1.87;1.70;;;25.40;49.60;;;;;;4993454;28;20944;-84
2021/04/23 05:06:01;;;;;;;1.80;1.70;;;25.40;49.60;;;;;;4993556;28;20848;-84
2021/04/23 05:08:27;;;;;;;1.50;1.40;;;25.40;50.30;;;;;;4993440;28;20451;-84
2021/04/23 05:10:54;;;;;;;1.83;1.73;;;25.40;49.70;;;;;;4993422;28;20447;-84
2021/04/23 05:13:20;;;;;;;1.67;1.50;;;25.40;49.60;;;;;;4993354;28;20448;-84
2021/04/23 05:15:46;;;;;;;9.50;1.63;;;25.40;49.60;;;;;;4995878;28;20938;-84
2021/04/23 05:18:13;;;;;;;1.70;1.60;;;25.40;50.40;;;;;;4990186;28;20432;-85
2021/04/23 05:20:39;;;;;;;2.00;1.80;;;25.50;50.20;;;;;;4982571;28;20970;-86
2021/04/23 05:23:08;;;;;;;1.73;1.63;;;25.40;49.80;;;;;;4982146;28;20506;-85
2021/04/23 05:25:35;;;;;;;3.10;1.90;;;25.40;49.70;;;;;;4977411;28;20481;-85
2021/04/23 05:28:02;;;;;;;1.80;1.70;;;25.40;49.80;;;;;;4977475;28;20459;-86
2021/04/23 05:30:31;;;;;;;2.33;2.13;;;25.40;49.70;;;;;;4977633;28;20944;-85
2021/04/23 05:32:59;;;;;;;2.30;2.10;;;25.40;49.40;;;;;;4977493;28;20847;-85
2021/04/23 05:35:26;;;;;;;1.70;1.60;;;25.40;49.80;;;;;;4977482;28;20441;-85
2021/04/23 05:37:53;;;;;;;2.53;2.33;;;25.40;49.90;;;;;;4977582;28;20777;-85
2021/04/23 05:40:24;;;;;;;2.47;2.20;;;25.40;49.80;;;;;;4977334;28;20801;-85
2021/04/23 05:42:50;;;;;;;2.00;1.70;;;25.40;50.00;;;;;;4977303;28;20444;-85
2021/04/23 05:45:17;;;;;;;2.10;2.00;;;25.40;50.00;;;;;;4988462;28;20521;-85
2021/04/23 05:47:43;;;;;;;2.70;1.97;;;25.50;50.20;;;;;;4996266;28;20460;-85
2021/04/23 05:50:11;;;;;;;1.87;1.73;;;25.40;50.10;;;;;;4996807;28;20440;-85
2021/04/23 05:52:38;;;;;;;2.10;2.00;;;25.40;50.20;;;;;;4996354;28;20448;-85
2021/04/23 05:55:05;;;;;;;2.87;2.47;;;25.50;50.10;;;;;;4996404;28;20444;-85
2021/04/23 05:57:32;;;;;;;2.00;1.90;;;25.50;50.20;;;;;;4996362;28;20448;-90
2021/04/23 05:59:58;;;;;;;1.80;1.70;;;25.50;50.20;;;;;;4996243;28;20480;-83
2021/04/23 06:02:25;;;;;;;3.13;2.93;;;25.70;50.80;;;;;;4996382;28;20448;-85
2021/04/23 06:04:51;;;;;;;2.10;1.90;;;25.70;50.40;;;;;;4996095;28;20479;-85
2021/04/23 06:07:18;;;;;;;2.60;2.17;;;25.50;50.60;;;;;;4996084;28;20449;-86
2021/04/23 06:09:44;;;;;;;2.03;1.90;;;25.50;50.50;;;;;;4995958;28;20454;-85
2021/04/23 06:12:10;;;;;;;3.47;1.70;;;25.70;50.40;;;;;;4996050;28;20448;-85
2021/04/23 06:14:37;;;;;;;2.20;2.03;;;25.50;50.40;;;;;;4996242;28;20505;-85
2021/04/23 06:17:05;;;;;;;2.10;2.00;;;25.50;50.30;;;;;;4995838;28;20467;-85
2021/04/23 06:19:32;;;;;;;2.37;2.03;;;25.50;50.40;;;;;;4990250;28;20816;-85
2021/04/23 06:21:59;;;;;;;2.40;2.20;;;25.70;50.80;;;;;;4995784;28;20438;-83
2021/04/23 06:24:25;;;;;;;3.03;2.30;;;25.50;50.80;;;;;;4995585;28;20958;-81
2021/04/23 06:26:51;;;;;;;3.63;2.07;;;25.50;51.00;;;;;;4995415;28;20483;-81
2021/04/23 06:29:18;;;;;;;3.10;2.80;;;25.60;51.00;;;;;;4995520;28;20455;-81
2021/04/23 06:31:45;;;;;;;2.70;2.50;;;25.60;51.80;;;;;;4995497;28;20441;-81
2021/04/23 06:34:12;;;;;;;2.57;1.90;;;25.60;51.60;;;;;;4995448;28;20440;-82
2021/04/23 06:36:38;;;;;;;3.10;2.90;;;25.60;51.90;;;;;;4995507;28;20435;-81
2021/04/23 06:39:12;;;;;;;3.13;2.93;;;25.60;52.00;;;;;;4995377;28;20440;-81
2021/04/23 06:41:38;;;;;;;3.50;2.40;;;25.60;52.20;;;;;;4995429;28;20444;-81
2021/04/23 06:44:05;;;;;;;3.70;2.60;;;25.70;52.40;;;;;;4995389;28;20455;-84
2021/04/23 06:46:31;;;;;;;6.13;3.73;;;25.60;52.50;;;;;;4995031;28;20495;-84
2021/04/23 06:48:59;;;;;;;2.50;2.30;;;25.60;51.80;;;;;;4995247;28;20443;-87
2021/04/23 06:51:25;;;;;;;3.10;2.90;;;25.60;52.00;;;;;;4995282;28;20463;-81
2021/04/23 06:53:51;;;;;;;6.80;2.43;;;25.60;51.90;;;;;;4995078;28;20442;-84
2021/04/23 06:56:18;;;;;;;3.40;2.53;;;25.60;52.10;;;;;;4995161;28;20850;-82
2021/04/23 06:58:46;;;;;;;3.00;2.47;;;25.60;52.40;;;;;;4994806;28;20489;-81
2021/04/23 07:01:13;;;;;;;3.10;2.00;;;25.60;52.40;;;;;;4994662;28;20998;-81
2021/04/23 07:03:41;;;;;;;5.00;2.10;;;25.70;52.10;;;;;;4994657;28;20448;-81
2021/04/23 07:06:08;;;;;;;2.63;2.00;;;25.70;52.00;;;;;;4994717;28;20499;-82
2021/04/23 07:08:35;;;;;;;3.10;1.90;;;25.70;52.00;;;;;;4994777;28;20451;-81
2021/04/23 07:11:01;;;;;;;2.30;1.97;;;25.70;51.90;;;;;;4994630;28;20444;-82
2021/04/23 07:13:27;;;;;;;3.87;1.70;;;25.80;51.80;;;;;;4994471;28;20946;-83
2021/04/23 07:15:54;;;;;;;2.63;2.20;;;25.80;51.70;;;;;;4994472;28;20472;-82
2021/04/23 07:18:20;;;;;;;2.20;1.70;;;25.80;51.70;;;;;;4994569;28;20808;-82
2021/04/23 07:23:32;;;;;;;2.93;2.40;;;25.90;51.60;;;;;;4994557;28;20836;-81
2021/04/23 07:25:58;;;;;;;1.90;1.80;;;25.90;51.60;;;;;;4994301;28;20488;-81
2021/04/23 07:28:24;;;;;;;2.90;2.20;;;26.00;51.70;;;;;;4994418;28;20859;-83
2021/04/23 07:30:51;;;;;;;2.10;1.90;;;26.00;51.70;;;;;;4994463;28;20444;-81
2021/04/23 07:33:17;;;;;;;1.80;1.47;;;26.00;51.80;;;;;;4994104;28;20814;-82
2021/04/23 07:35:45;;;;;;;4.23;1.53;;;26.00;51.80;;;;;;4994316;28;20444;-81
2021/04/23 07:38:11;;;;;;;1.70;1.60;;;26.00;51.70;;;;;;4993715;28;20448;-81
2021/04/23 07:40:39;;;;;;;2.17;1.70;;;26.00;51.70;;;;;;4994279;28;20446;-82
2021/04/23 07:43:05;;;;;;;2.20;2.00;;;26.10;51.80;;;;;;4994072;28;20438;-82
2021/04/23 07:45:32;;;;;;;2.57;1.83;;;26.10;51.70;;;;;;4993943;28;20983;-81
2021/04/23 07:47:58;;;;;;;1.87;1.60;;;26.10;52.10;;;;;;4994025;28;20447;-81
2021/04/23 07:50:27;;;;;;;2.50;1.77;;;26.10;52.50;;;;;;4993995;28;20447;-81
2021/04/23 07:52:54;;;;;;;3.20;1.80;;;26.20;52.60;;;;;;4993568;28;20539;-81
2021/04/23 07:55:22;;;;;;;3.23;1.67;;;26.20;52.60;;;;;;4994028;28;20930;-83
2021/04/23 07:57:50;;;;;;;1.90;1.53;;;26.20;52.60;;;;;;4993952;28;20829;-81
2021/04/23 08:00:19;;;;;;;1.80;1.60;;;26.30;52.60;;;;;;4993711;28;20472;-82
2021/04/23 08:02:46;;;;;;;1.77;1.57;;;26.30;52.60;;;;;;4993757;28;20947;-83
2021/04/23 08:05:15;;;;;;;3.43;1.50;;;26.30;52.60;;;;;;4993825;28;20496;-82
2021/04/23 08:07:41;;;;;;;1.70;1.50;;;26.30;52.50;;;;;;4993796;28;20445;-82
2021/04/23 08:10:09;;;;;;;2.10;1.73;;;26.40;52.60;;;;;;4993974;28;20475;-82
2021/04/23 08:12:35;;;;;;;2.50;1.50;;;26.40;52.60;;;;;;4993717;28;20538;-82
2021/04/23 08:15:03;;;;;;;1.93;1.63;;;26.40;52.60;;;;;;4993800;28;20445;-83
2021/04/23 08:17:30;;;;;;;4.40;1.70;;;26.40;52.50;;;;;;4993580;28;20475;-82
2021/04/23 08:19:56;;;;;;;2.07;1.60;;;26.30;52.40;;;;;;4993768;28;20441;-83
2021/04/23 08:22:23;;;;;;;1.50;1.40;;;26.40;52.50;;;;;;4993718;28;20448;-83
2021/04/23 08:24:49;;;;;;;2.00;1.43;;;26.40;52.50;;;;;;4993543;28;20452;-80
2021/04/23 08:27:15;;;;;;;1.97;1.63;;;26.30;52.40;;;;;;4993575;28;20445;-85
2021/04/23 08:29:42;;;;;;;1.50;1.40;;;26.40;52.50;;;;;;4993626;28;20480;-86
2021/04/23 08:32:09;;;;;;;1.53;1.43;;;26.40;52.40;;;;;;4993627;28;20450;-85
2021/04/23 08:34:35;;;;;;;1.73;1.50;;;26.40;52.40;;;;;;4993520;28;20447;-84
2021/04/23 08:37:02;;;;;;;1.97;1.87;;;26.40;52.30;;;;;;4993530;28;20458;-85
2021/04/23 08:39:28;;;;;;;1.60;1.50;;;26.40;52.30;;;;;;4993545;28;20499;-85
2021/04/23 08:41:55;;;;;;;3.00;1.60;;;26.40;52.30;;;;;;4993626;28;20482;-85
2021/04/23 08:44:21;;;;;;;1.57;1.40;;;26.40;52.30;;;;;;4993348;28;20477;-94
2021/04/23 08:46:48;;;;;;;1.93;1.37;;;26.40;52.20;;;;;;4993615;28;20504;-93
2021/04/23 08:49:16;;;;;;;1.30;1.20;;;26.40;52.30;;;;;;4993911;28;20467;-82
2021/04/23 08:51:44;;;;;;;1.50;1.40;;;26.40;52.30;;;;;;4997119;28;20438;-82
2021/04/23 08:54:10;;;;;;;2.67;1.80;;;26.60;52.50;;;;;;4997209;28;20437;-82
2021/04/23 08:56:37;;;;;;;2.27;1.50;;;26.40;52.40;;;;;;4997193;28;20440;-83
2021/04/23 08:59:03;;;;;;;1.87;1.60;;;26.40;52.40;;;;;;4997104;28;20502;-87
2021/04/23 09:01:30;;;;;;;1.90;1.60;;;26.30;52.30;;;;;;4996885;28;20469;-82
2021/04/23 09:03:56;;;;;;;2.43;1.70;;;26.30;52.30;;;;;;4996997;28;20857;-87
2021/04/23 09:06:24;;;;;;;1.40;1.30;;;26.30;52.20;;;;;;4996922;28;20496;-82
2021/04/23 09:09:04;;;;;;;1.80;1.20;;;26.30;52.20;;;;;;4996850;28;20486;-84
2021/04/23 09:11:33;;;;;;;1.50;1.40;;;26.60;52.30;;;;;;4996906;28;20981;-88
2021/04/23 09:14:02;;;;;;;1.73;1.63;;;26.40;52.30;;;;;;4996791;28;20518;-84
2021/04/23 09:16:53;;;;;;;1.53;1.40;;;26.40;52.30;;;;;;4996717;28;20465;-85
2021/04/23 09:19:22;;;;;;;1.60;1.20;;;26.50;52.30;;;;;;4996950;28;20453;-85
2021/04/23 09:21:52;;;;;;;1.60;1.30;;;26.50;52.30;;;;;;4996778;28;20548;-83
2021/04/23 09:24:25;;;;;;;1.30;1.10;;;26.60;52.20;;;;;;4996446;28;21030;-86
2021/04/23 09:26:52;;;;;;;1.57;1.37;;;26.70;52.10;;;;;;4996714;28;20492;-85
2021/04/23 09:29:29;;;;;;;1.77;1.40;;;26.70;52.10;;;;;;4996660;28;20508;-85
2021/04/23 09:31:56;;;;;;;2.17;1.60;;;26.70;52.10;;;;;;4996558;28;20452;-85
2021/04/23 09:34:24;;;;;;;1.43;1.23;;;26.80;52.00;;;;;;4996464;28;20918;-83
2021/04/23 09:36:51;;;;;;;3.10;1.80;;;26.80;51.90;;;;;;4996493;28;20489;-84
2021/04/23 09:39:20;;;;;;;2.23;1.60;;;26.80;51.90;;;;;;4996306;28;20448;-81
2021/04/23 09:42:02;;;;;;;1.20;1.10;;;26.80;51.90;;;;;;4996318;28;20446;-86
2021/04/23 09:44:31;;;;;;;1.30;1.20;;;26.90;51.90;;;;;;4996375;28;20531;-85
2021/04/23 09:47:01;;;;;;;1.97;1.40;;;27.00;51.80;;;;;;4996201;28;20569;-85
2021/04/23 09:49:28;;;;;;;1.20;1.10;;;27.10;51.70;;;;;;4996236;28;20941;-84
2021/04/23 09:51:56;;;;;;;1.90;1.20;;;27.10;51.70;;;;;;4996009;28;21007;-85
2021/04/23 09:54:25;;;;;;;1.50;1.20;;;27.10;51.20;;;;;;4995999;28;20447;-84
2021/04/23 09:56:53;;;;;;;1.40;1.30;;;27.20;51.50;;;;;;4996111;28;20845;-83
2021/04/23 09:59:21;;;;;;;1.30;1.20;;;27.20;51.50;;;;;;4996062;28;20455;-83
2021/04/23 10:01:59;;;;;;;1.10;1.00;;;27.20;51.50;;;;;;4995222;28;20481;-84
2021/04/23 10:04:28;;;;;;;1.80;1.50;;;27.30;51.60;;;;;;4995998;28;20451;-84
2021/04/23 10:07:13;;;;;;;2.60;1.47;;;27.30;51.60;;;;;;4995929;28;20490;-85
2021/04/23 10:09:48;;;;;;;3.30;1.60;;;27.30;51.50;;;;;;4996031;28;20450;-86
2021/04/23 10:12:32;;;;;;;1.50;1.40;;;27.30;51.60;;;;;;4995627;28;20535;-83
2021/04/23 10:15:00;;;;;;;1.30;1.20;;;27.40;51.60;;;;;;4995876;28;20452;-82
2021/04/23 10:17:27;;;;;;;1.50;1.30;;;27.40;51.60;;;;;;4995741;28;20822;-85
2021/04/23 10:19:54;;;;;;;1.30;1.10;;;27.40;51.60;;;;;;4995607;28;20446;-84
2021/04/23 10:22:22;;;;;;;1.77;1.20;;;27.40;51.70;;;;;;4995553;28;20495;-80
2021/04/23 10:24:49;;;;;;;1.60;1.27;;;27.40;51.70;;;;;;4995656;28;20446;-86
2021/04/23 10:27:16;;;;;;;1.33;1.00;;;27.40;51.70;;;;;;4995433;28;20504;-85
2021/04/23 10:29:44;;;;;;;1.40;1.23;;;27.40;51.70;;;;;;4995594;28;20443;-86
2021/04/23 10:32:11;;;;;;;1.27;1.17;;;27.40;51.70;;;;;;4995109;28;21025;-85
2021/04/23 10:34:38;;;;;;;1.80;1.70;;;27.40;51.70;;;;;;4995386;28;20977;-84
2021/04/23 10:37:05;;;;;;;1.63;1.40;;;27.50;51.80;;;;;;4995323;28;20917;-82
2021/04/23 10:39:35;;;;;;;1.20;1.10;;;27.50;51.80;;;;;;4995360;28;20448;-82
2021/04/23 10:42:02;;;;;;;1.20;1.03;;;27.50;51.80;;;;;;4995357;28;20446;-81
2021/04/23 10:44:50;;;;;;;2.23;1.20;;;27.50;51.70;;;;;;4995276;28;20494;-82
2021/04/23 10:47:30;;;;;;;1.37;1.27;;;27.60;51.80;;;;;;4994981;28;20853;-84
2021/04/23 10:50:08;;;;;;;1.93;1.43;;;27.60;51.80;;;;;;4995089;28;20447;-90
2021/04/23 10:52:34;;;;;;;2.10;1.27;;;27.60;51.70;;;;;;4994669;28;20940;-82
2021/04/23 10:55:07;;;;;;;1.20;0.93;;;27.70;51.70;;;;;;4995116;28;20447;-82
2021/04/23 10:57:53;;;;;;;1.20;1.10;;;27.70;51.70;;;;;;4994898;28;20441;-80
2021/04/23 11:00:38;;;;;;;1.20;1.07;;;27.80;51.60;;;;;;4994715;28;20574;-84
2021/04/23 11:03:24;;;;;;;1.97;1.43;;;27.90;51.70;;;;;;4995062;28;20451;-82
2021/04/23 11:05:52;;;;;;;1.13;1.03;;;27.90;51.60;;;;;;4994638;28;20483;-82
2021/04/23 11:08:19;;;;;;;1.20;1.07;;;28.00;51.40;;;;;;4994784;28;20551;-82
2021/04/23 11:11:16;;;;;;;1.17;1.07;;;28.00;51.50;;;;;;4994744;28;20455;-81
2021/04/23 11:13:48;;;;;;;3.50;1.43;;;28.00;51.30;;;;;;4993788;28;20461;-81
2021/04/23 11:16:28;;;;;;;3.33;1.30;;;27.90;50.90;;;;;;4994681;28;20971;-81
2021/04/23 11:18:56;;;;;;;3.40;1.50;;;28.00;51.20;;;;;;4994587;28;20440;-82
2021/04/23 11:21:39;;;;;;;2.83;1.30;;;28.00;50.70;;;;;;4994516;28;20440;-82
2021/04/23 11:24:11;;;;;;;2.47;1.60;;;27.90;48.30;;;;;;4994391;28;20871;-82
2021/04/23 11:27:04;;;;;;;1.70;1.30;;;27.80;48.20;;;;;;4994332;28;20492;-82
2021/04/23 11:29:32;;;;;;;2.10;1.90;;;27.70;48.30;;;;;;4994432;28;20957;-83
2021/04/23 11:32:11;;;;;;;1.47;1.13;;;27.50;48.20;;;;;;4994190;28;20451;-82
2021/04/23 11:34:39;;;;;;;2.37;1.57;;;27.40;48.10;;;;;;4994341;28;20953;-81
2021/04/23 11:37:08;;;;;;;2.43;1.43;;;27.30;48.00;;;;;;4994287;28;20443;-81
2021/04/23 11:39:40;;;;;;;4.03;1.83;;;27.30;47.90;;;;;;4994260;28;20469;-82
2021/04/23 11:42:15;;;;;;;5.00;1.67;;;27.20;47.80;;;;;;4994263;28;20442;-82
2021/04/23 11:44:45;;;;;;;1.90;1.50;;;27.10;47.90;;;;;;4994217;28;20439;-82
2021/04/23 11:47:11;;;;;;;1.73;1.50;;;27.10;47.90;;;;;;4994126;28;20513;-83
2021/04/23 11:49:38;;;;;;;1.57;1.30;;;27.10;47.90;;;;;;4994086;28;20442;-82
2021/04/23 11:52:04;;;;;;;2.70;1.30;;;27.00;47.80;;;;;;4993937;28;20439;-82
2021/04/23 11:54:38;;;;;;;1.73;1.63;;;27.00;47.80;;;;;;4993947;28;20503;-82
2021/04/23 11:57:06;;;;;;;2.10;1.40;;;27.00;47.80;;;;;;4994060;28;20450;-82
2021/04/23 11:59:34;;;;;;;3.20;1.50;;;26.90;47.80;;;;;;4993823;28;20453;-82
2021/04/23 12:02:00;;;;;;;1.60;1.50;;;26.90;47.70;;;;;;4993974;28;20441;-82
2021/04/23 12:04:41;;;;;;;2.23;1.70;;;26.90;47.70;;;;;;4993904;28;20951;-81
2021/04/23 12:07:07;;;;;;;2.70;1.47;;;26.90;47.70;;;;;;4993847;28;20528;-82
2021/04/23 12:09:33;;;;;;;1.57;1.20;;;26.80;47.70;;;;;;4993918;28;20960;-82
2021/04/23 12:12:08;;;;;;;3.70;1.80;;;26.80;47.70;;;;;;4993622;28;21004;-82
2021/04/23 12:14:47;;;;;;;2.07;1.33;;;26.80;47.60;;;;;;4993888;28;20443;-83
2021/04/23 12:17:14;;;;;;;1.90;1.40;;;26.80;47.70;;;;;;4993720;28;20461;-83
2021/04/23 12:19:41;;;;;;;1.60;1.40;;;26.70;47.70;;;;;;4993862;28;20540;-82
2021/04/23 12:22:08;;;;;;;5.20;1.80;;;26.70;48.30;;;;;;4993554;28;20445;-83
2021/04/23 12:24:35;;;;;;;2.13;1.57;;;26.70;47.40;;;;;;4996179;28;20454;-82
2021/04/23 12:27:01;;;;;;;3.57;1.70;;;26.70;47.50;;;;;;4997641;28;20592;-82
2021/04/23 12:29:27;;;;;;;3.13;1.33;;;26.70;47.60;;;;;;4997770;28;20450;-82
2021/04/23 12:31:54;;;;;;;3.67;1.57;;;26.70;47.60;;;;;;4997559;28;20528;-82
2021/04/23 12:34:22;;;;;;;3.30;1.60;;;26.70;47.60;;;;;;4997703;28;20775;-82
2021/04/23 12:36:50;;;;;;;2.63;1.60;;;26.70;47.60;;;;;;4997612;28;20507;-82
2021/04/23 12:39:20;;;;;;;2.37;1.50;;;26.70;47.60;;;;;;4997521;28;20453;-82
2021/04/23 12:41:49;;;;;;;1.87;1.50;;;26.70;47.60;;;;;;4997593;28;20455;-82
2021/04/23 12:44:17;;;;;;;3.80;1.70;;;26.70;47.50;;;;;;4997397;28;20469;-82
2021/04/23 12:46:45;;;;;;;1.80;1.50;;;26.70;47.50;;;;;;4997379;28;20502;-82
2021/04/23 12:49:16;;;;;;;2.10;1.60;;;26.80;47.50;;;;;;4997398;28;20490;-82
2021/04/23 12:51:47;;;;;;;1.93;1.30;;;26.60;47.40;;;;;;4997193;28;20445;-83
2021/04/23 12:54:15;;;;;;;2.67;1.53;;;26.70;47.60;;;;;;4997286;28;20434;-82
2021/04/23 12:56:48;;;;;;;2.40;1.33;;;26.60;47.50;;;;;;4997140;28;20443;-83